Fort Myers, Florida
Current Conditions -  °F | °C
As of 5:53 AM on Tuesday 21 Oct 2014 (Local Time) from KFMY Reporting Station
Broken Clouds Broken Clouds  
Wind Chill: 74°   Ceiling: 5500
Heat Index: 74°   Visibility: 10mi
Dew Point: 71°   Wind: 3mph
Humidity: 91%   Direction: 90°E
Pressure: 29.91"   Gusts: NA
Location:  26.64°N, 81.87°W
Report Text: KFMY 210953Z AUTO 09003KT 10SM SCT044 BKN055 BKN070 23/22 A2991 RMK AO2 SLP130 T02330217
Loading
Personal Weather Stations






























Interactive Weather Map New forecast layout! Learn more

10-Day Weather Forecast

Advertisements
Track Severe Weather on mobile